^^
Station Historical Data
 
Daily Summary for October 15, 2019 Units:  English    Metric   Both
Daily Weekly Monthly Yearly Custom
  Current: High: Low: Average:
Temperature: 38.2 °F 59.8 °F 32.5 °F 47.1 °F
Dew Point: 27.1 °F 32.3 °F 12.3 °F 27.5 °F
Humidity: 64% 79% 18% 49%
Wind Speed: 0mph 0mph 0mph 0mph
Wind Gust: 0mph 0mph - -
WindCalm - -
Pressure: 30.23 in 30.24 in 30.04 in -
Precipitation: 0.00 in      
Historical Graphs
 
 
Tabular Data for October 15, 2019
Time Temperature Dew Point Pressure Wind Wind Speed Wind Gust Humidity Rainfall Rate (Hourly) solar
00:04 55.2 °F 12.4 °F 30.04 in Calm     18% 0.00 in 0 W/m2
00:09 55.1 °F 12.3 °F 30.04 in Calm     18% 0.00 in 0 W/m2
00:14 55.2 °F 12.4 °F 30.04 in Calm     18% 0.00 in 0 W/m2
00:19 55.2 °F 12.4 °F 30.04 in Calm     18% 0.00 in 0 W/m2
00:24 55.2 °F 12.8 °F 30.04 in Calm     18.4% 0.00 in 0 W/m2
00:29 55.1 °F 12.3 °F 30.04 in Calm     18% 0.00 in 0 W/m2
00:34 55.2 °F 12.4 °F 30.04 in Calm     18% 0.00 in 0 W/m2
00:39 55.3 °F 12.5 °F 30.04 in Calm     18% 0.00 in 0 W/m2
00:44 55.5 °F 13 °F 30.05 in Calm     18.3% 0.00 in 0 W/m2
00:49 55.5 °F 13 °F 30.05 in Calm     18.3% 0.00 in 0 W/m2
00:54 55.3 °F 13.7 °F 30.05 in Calm     19% 0.00 in 0 W/m2
00:59 54.9 °F 13.8 °F 30.05 in Calm     19.4% 0.00 in 0 W/m2
01:04 54.9 °F 13.3 °F 30.05 in Calm     19% 0.00 in 0 W/m2
01:09 54.8 °F 13.3 °F 30.05 in Calm     19% 0.00 in 0 W/m2
01:14 54.8 °F 13.5 °F 30.05 in Calm     19.2% 0.00 in 0 W/m2
01:19 54.9 °F 14.4 °F 30.05 in Calm     20% 0.00 in 0 W/m2
01:27 54.3 °F 14 °F 30.05 in Calm     20% 0.00 in 0 W/m2
01:39 53.7 °F 13.5 °F 30.06 in Calm     20% 0.00 in 0 W/m2
01:44 53.6 °F 14 °F 30.06 in Calm     20.6% 0.00 in 0 W/m2
01:49 53.2 °F 14.2 °F 30.06 in Calm     21% 0.00 in 0 W/m2
01:54 52.8 °F 14.5 °F 30.09 in Calm     21.6% 0.00 in 0 W/m2
01:59 51.3 °F 17.6 °F 30.10 in Calm     26.1% 0.00 in 0 W/m2
02:04 48.9 °F 20.3 °F 30.11 in Calm     32% 0.00 in 0 W/m2
02:09 47.4 °F 22.2 °F 30.12 in Calm     36.6% 0.00 in 0 W/m2
02:14 46.5 °F 23.2 °F 30.12 in Calm     39.6% 0.00 in 0 W/m2
02:19 45.8 °F 23.8 °F 30.13 in Calm     41.7% 0.00 in 0 W/m2
02:24 45.3 °F 23.9 °F 30.14 in Calm     42.7% 0.00 in 0 W/m2
02:29 45 °F 24.2 °F 30.15 in Calm     43.8% 0.00 in 0 W/m2
02:34 44.7 °F 24.9 °F 30.16 in Calm     45.4% 0.00 in 0 W/m2
02:39 44.5 °F 25.1 °F 30.16 in Calm     46.3% 0.00 in 0 W/m2
02:44 44.3 °F 25.5 °F 30.17 in Calm     47.3% 0.00 in 0 W/m2
02:49 44.1 °F 25.6 °F 30.17 in Calm     48% 0.00 in 0 W/m2
02:54 44 °F 25.8 °F 30.17 in Calm     48.6% 0.00 in 0 W/m2
02:59 43.8 °F 26.3 °F 30.18 in Calm     49.8% 0.00 in 0 W/m2
03:04 43.5 °F 26.2 °F 30.18 in Calm     50.1% 0.00 in 0 W/m2
03:09 43.2 °F 26.3 °F 30.18 in Calm     51% 0.00 in 0 W/m2
03:14 42.9 °F 26.3 °F 30.18 in Calm     51.8% 0.00 in 0 W/m2
03:19 42.5 °F 26.5 °F 30.18 in Calm     52.8% 0.00 in 0 W/m2
03:24 42.2 °F 26.6 °F 30.18 in Calm     53.6% 0.00 in 0 W/m2
03:29 41.9 °F 26.4 °F 30.18 in Calm     54% 0.00 in 0 W/m2
03:34 41.6 °F 26.6 °F 30.18 in Calm     54.9% 0.00 in 0 W/m2
03:39 41.3 °F 26.8 °F 30.18 in Calm     56% 0.00 in 0 W/m2
03:44 41 °F 26.5 °F 30.18 in Calm     56% 0.00 in 0 W/m2
03:49 40.6 °F 26.3 °F 30.19 in Calm     56.5% 0.00 in 0 W/m2
03:54 40.1 °F 26.3 °F 30.19 in Calm     57.5% 0.00 in 0 W/m2
03:59 39.7 °F 26.2 °F 30.19 in Calm     58.4% 0.00 in 0 W/m2
04:04 39.4 °F 26.3 °F 30.19 in Calm     59.2% 0.00 in 0 W/m2
04:09 39.1 °F 26.6 °F 30.19 in Calm     60.5% 0.00 in 0 W/m2
04:14 38.9 °F 26.6 °F 30.19 in Calm     61% 0.00 in 0 W/m2
04:19 38.6 °F 26.6 °F 30.20 in Calm     61.7% 0.00 in 0 W/m2
04:24 38.4 °F 26.5 °F 30.20 in Calm     62% 0.00 in 0 W/m2
04:29 38.3 °F 26.5 °F 30.19 in Calm     62.3% 0.00 in 0 W/m2
04:34 38.2 °F 26.7 °F 30.20 in Calm     63% 0.00 in 0 W/m2
04:39 38.1 °F 26.7 °F 30.20 in Calm     63.1% 0.00 in 0 W/m2
04:44 38.1 °F 27 °F 30.20 in Calm     64% 0.00 in 0 W/m2
04:49 37.9 °F 26.9 °F 30.20 in Calm     64.2% 0.00 in 0 W/m2
04:54 37.9 °F 27.3 °F 30.20 in Calm     65.3% 0.00 in 0 W/m2
04:59 37.9 °F 27.8 °F 30.20 in Calm     66.7% 0.00 in 0 W/m2
05:04 38 °F 28.3 °F 30.20 in Calm     67.7% 0.00 in 0 W/m2
05:09 38.1 °F 28.3 °F 30.20 in Calm     67.6% 0.00 in 0 W/m2
05:14 38.1 °F 28 °F 30.20 in Calm     66.7% 0.00 in 0 W/m2
05:19 37.9 °F 27.3 °F 30.20 in Calm     65.3% 0.00 in 0 W/m2
05:24 37.5 °F 26.6 °F 30.20 in Calm     64.6% 0.00 in 0 W/m2
05:29 37.1 °F 26.7 °F 30.20 in Calm     65.7% 0.00 in 0 W/m2
05:34 36.7 °F 26.4 °F 30.20 in Calm     66% 0.00 in 0 W/m2
05:39 36.2 °F 26.3 °F 30.20 in Calm     67% 0.00 in 0 W/m2
05:44 35.7 °F 25.9 °F 30.20 in Calm     67.3% 0.00 in 0 W/m2
05:49 35.3 °F 25.9 °F 30.20 in Calm     68.3% 0.00 in 0 W/m2
05:54 34.9 °F 25.9 °F 30.20 in Calm     69.2% 0.00 in 0 W/m2
05:59 34.6 °F 26 °F 30.20 in Calm     70.4% 0.00 in 0 W/m2
06:04 34.4 °F 26 °F 30.20 in Calm     71% 0.00 in 0 W/m2
06:09 34.2 °F 26 °F 30.20 in Calm     71.5% 0.00 in 0 W/m2
06:14 34.1 °F 26.2 °F 30.20 in Calm     72.5% 0.00 in 0 W/m2
06:19 33.9 °F 26 °F 30.19 in Calm     72.4% 0.00 in 0 W/m2
06:24 33.7 °F 26 °F 30.19 in Calm     73% 0.00 in 0 W/m2
06:29 33.4 °F 25.8 °F 30.19 in Calm     73.1% 0.00 in 0 W/m2
06:34 33.2 °F 25.8 °F 30.19 in Calm     74.2% 0.00 in 0 W/m2
06:39 33.1 °F 26.1 °F 30.19 in Calm     75.2% 0.00 in 0 W/m2
06:44 33.1 °F 26.4 °F 30.19 in Calm     76% 0.00 in 0 W/m2
06:49 33 °F 26.3 °F 30.19 in Calm     76% 0.00 in 0 W/m2
06:54 32.9 °F 26.3 °F 30.19 in Calm     76.3% 0.00 in 0 W/m2
06:59 32.8 °F 26.4 °F 30.19 in Calm     77% 0.00 in 0 W/m2
07:04 32.7 °F 26.3 °F 30.19 in Calm     77% 0.00 in 0 W/m2
07:09 32.6 °F 26.2 °F 30.19 in Calm     77% 0.00 in 0 W/m2
07:14 32.6 °F 26.2 °F 30.19 in Calm     77% 0.00 in 7 W/m2
07:19 32.5 °F 26.1 °F 30.19 in Calm     77.1% 0.00 in 11 W/m2
07:24 32.6 °F 26.5 °F 30.19 in Calm     78.2% 0.00 in 14 W/m2
07:29 32.9 °F 27.1 °F 30.19 in Calm     79% 0.00 in 18 W/m2
07:34 33.4 °F 27.6 °F 30.19 in Calm     79% 0.00 in 25 W/m2
07:39 33.7 °F 27.8 °F 30.19 in Calm     78.7% 0.00 in 35 W/m2
07:44 33.9 °F 27.8 °F 30.19 in Calm     78% 0.00 in 47 W/m2
07:49 34.1 °F 27.8 °F 30.19 in Calm     77.6% 0.00 in 58 W/m2
07:54 34.3 °F 27.8 °F 30.19 in Calm     77% 0.00 in 72 W/m2
07:59 34.6 °F 28.1 °F 30.20 in Calm     77% 0.00 in 86 W/m2
08:04 35.1 °F 28.6 °F 30.20 in Calm     77% 0.00 in 105 W/m2
08:09 35.6 °F 29.1 °F 30.20 in Calm     76.8% 0.00 in 123 W/m2
08:14 36.3 °F 29.5 °F 30.20 in Calm     76% 0.00 in 141 W/m2
08:19 36.9 °F 29.8 °F 30.20 in Calm     75.2% 0.00 in 160 W/m2
08:24 37.4 °F 30 °F 30.21 in Calm     74.2% 0.00 in 183 W/m2
08:29 38 °F 30.3 °F 30.20 in Calm     73.7% 0.00 in 202 W/m2
08:34 38.8 °F 30.6 °F 30.20 in Calm     72.3% 0.00 in 221 W/m2
08:39 39.7 °F 30.8 °F 30.21 in Calm     70.2% 0.00 in 239 W/m2
08:44 40.7 °F 31.2 °F 30.21 in Calm     68.7% 0.00 in 258 W/m2
08:49 42 °F 31.5 °F 30.21 in Calm     66.2% 0.00 in 279 W/m2
08:54 42.9 °F 31.4 °F 30.20 in Calm     63.7% 0.00 in 294 W/m2
08:59 43.7 °F 31.6 °F 30.20 in Calm     62.2% 0.00 in 309 W/m2
09:04 44.6 °F 31.7 °F 30.20 in Calm     60.4% 0.00 in 323 W/m2
09:09 45 °F 31.5 °F 30.20 in Calm     59% 0.00 in 341 W/m2
09:14 45.3 °F 31.8 °F 30.20 in Calm     58.8% 0.00 in 352 W/m2
09:19 45.8 °F 31.8 °F 30.20 in Calm     57.9% 0.00 in 369 W/m2
09:24 45.9 °F 31.5 °F 30.20 in Calm     57% 0.00 in 385 W/m2
09:29 46 °F 31.4 °F 30.20 in Calm     56.6% 0.00 in 399 W/m2
09:34 46.2 °F 31.5 °F 30.21 in Calm     56.2% 0.00 in 418 W/m2
09:39 46.4 °F 31.5 °F 30.21 in Calm     56% 0.00 in 434 W/m2
09:44 46.9 °F 31.8 °F 30.21 in Calm     55.4% 0.00 in 457 W/m2
09:49 47.7 °F 32.1 °F 30.21 in Calm     54.5% 0.00 in 487 W/m2
09:54 48.3 °F 32 °F 30.21 in Calm     53.2% 0.00 in 520 W/m2
09:59 48.6 °F 31.9 °F 30.21 in Calm     52.3% 0.00 in 524 W/m2
10:04 48.8 °F 31.9 °F 30.21 in Calm     52% 0.00 in 506 W/m2
10:09 48.7 °F 31.8 °F 30.20 in Calm     52% 0.00 in 394 W/m2
10:14 48.9 °F 31.8 °F 30.20 in Calm     51.6% 0.00 in 411 W/m2
10:19 48.8 °F 31.6 °F 30.20 in Calm     51.2% 0.00 in 522 W/m2
10:24 48.8 °F 31.6 °F 30.20 in Calm     51.4% 0.00 in 575 W/m2
10:29 48.8 °F 31.6 °F 30.20 in Calm     51.2% 0.00 in 575 W/m2
10:34 49.2 °F 31.8 °F 30.20 in Calm     50.9% 0.00 in 552 W/m2
10:39 49.2 °F 31.5 °F 30.20 in Calm     50.5% 0.00 in 563 W/m2
10:44 49.2 °F 31.4 °F 30.20 in Calm     50.3% 0.00 in 573 W/m2
10:49 49.1 °F 31.3 °F 30.20 in Calm     50.1% 0.00 in 578 W/m2
10:54 49.1 °F 31.4 °F 30.20 in Calm     50.4% 0.00 in 589 W/m2
10:59 49.2 °F 31.4 °F 30.20 in Calm     50.2% 0.00 in 594 W/m2
11:04 49.2 °F 31.4 °F 30.20 in Calm     50.1% 0.00 in 615 W/m2
11:09 49.3 °F 31.4 °F 30.20 in Calm     50% 0.00 in 610 W/m2
11:14 49.6 °F 31.5 °F 30.20 in Calm     49.6% 0.00 in 622 W/m2
11:19 49.9 °F 31.6 °F 30.20 in Calm     49.2% 0.00 in 643 W/m2
11:24 50.3 °F 31.4 °F 30.20 in Calm     48.2% 0.00 in 643 W/m2
11:29 50.4 °F 31 °F 30.20 in Calm     47.1% 0.00 in 638 W/m2
11:34 50.5 °F 31 °F 30.20 in Calm     47% 0.00 in 642 W/m2
11:39 50.6 °F 30.8 °F 30.20 in Calm     46.2% 0.00 in 647 W/m2
11:44 50.9 °F 30.9 °F 30.20 in Calm     46.2% 0.00 in 647 W/m2
11:49 50.9 °F 31.1 °F 30.20 in Calm     46.4% 0.00 in 654 W/m2
11:54 51.2 °F 31.2 °F 30.20 in Calm     46.2% 0.00 in 656 W/m2
11:59 52.2 °F 31.5 °F 30.20 in Calm     44.9% 0.00 in 657 W/m2
12:04 52.5 °F 31.5 °F 30.20 in Calm     44.4% 0.00 in 659 W/m2
12:09 52.8 °F 31.8 °F 30.20 in Calm     44.5% 0.00 in 661 W/m2
12:14 53.1 °F 31.4 °F 30.20 in Calm     43.3% 0.00 in 666 W/m2
12:19 52.9 °F 31.4 °F 30.20 in Calm     43.8% 0.00 in 666 W/m2
12:24 52.8 °F 31.8 °F 30.20 in Calm     44.6% 0.00 in 661 W/m2
12:29 52.7 °F 31.8 °F 30.20 in Calm     44.8% 0.00 in 666 W/m2
12:34 52.9 °F 32.3 °F 30.20 in Calm     45.2% 0.00 in 668 W/m2
12:39 53.1 °F 32 °F 30.20 in Calm     44.5% 0.00 in 666 W/m2
12:44 53.3 °F 32.1 °F 30.20 in Calm     44.4% 0.00 in 664 W/m2
12:49 53.6 °F 31.7 °F 30.20 in Calm     43.3% 0.00 in 664 W/m2
12:54 53.5 °F 31.5 °F 30.20 in Calm     43% 0.00 in 666 W/m2
12:59 53 °F 31.6 °F 30.19 in Calm     44% 0.00 in 666 W/m2
13:04 53.1 °F 31.8 °F 30.19 in Calm     44.2% 0.00 in 663 W/m2
13:09 53.3 °F 31.9 °F 30.19 in Calm     44% 0.00 in 664 W/m2
13:14 53.8 °F 31.8 °F 30.19 in Calm     43% 0.00 in 663 W/m2
13:19 53.5 °F 31.2 °F 30.19 in Calm     42.5% 0.00 in 659 W/m2
13:24 53.2 °F 31.2 °F 30.19 in Calm     42.8% 0.00 in 659 W/m2
13:29 53.8 °F 31.7 °F 30.18 in Calm     42.7% 0.00 in 652 W/m2
13:34 54 °F 31.2 °F 30.18 in Calm     41.6% 0.00 in 649 W/m2
13:39 54 °F 30.9 °F 30.18 in Calm     41% 0.00 in 647 W/m2
13:44 54.2 °F 31.3 °F 30.18 in Calm     41.6% 0.00 in 640 W/m2
13:49 54.4 °F 31.2 °F 30.18 in Calm     41% 0.00 in 635 W/m2
13:54 54.9 °F 31.3 °F 30.18 in Calm     40.5% 0.00 in 629 W/m2
13:59 55.1 °F 31.2 °F 30.18 in Calm     40% 0.00 in 624 W/m2
14:04 55.2 °F 31.3 °F 30.18 in Calm     39.9% 0.00 in 617 W/m2
14:09 55 °F 30.6 °F 30.18 in Calm     39.2% 0.00 in 613 W/m2
14:14 54.8 °F 30.5 °F 30.18 in Calm     39.3% 0.00 in 603 W/m2
14:19 55.2 °F 31.3 °F 30.18 in Calm     40% 0.00 in 596 W/m2
14:24 55.5 °F 30.8 °F 30.18 in Calm     38.8% 0.00 in 585 W/m2
14:29 55.5 °F 30.9 °F 30.18 in Calm     39% 0.00 in 580 W/m2
14:34 56.4 °F 31.2 °F 30.18 in Calm     38.2% 0.00 in 573 W/m2
14:39 56.5 °F 30.7 °F 30.18 in Calm     37.4% 0.00 in 566 W/m2
14:44 56.1 °F 30.6 °F 30.18 in Calm     37.8% 0.00 in 557 W/m2
14:49 56.3 °F 30.9 °F 30.18 in Calm     37.9% 0.00 in 555 W/m2
14:54 57.2 °F 30.7 °F 30.18 in Calm     36.4% 0.00 in 536 W/m2
14:59 57 °F 30.3 °F 30.18 in Calm     36% 0.00 in 527 W/m2
15:04 56.5 °F 29.9 °F 30.17 in Calm     36.2% 0.00 in 517 W/m2
15:09 56.9 °F 30.7 °F 30.17 in Calm     36.8% 0.00 in 504 W/m2
15:14 57.2 °F 30.4 °F 30.17 in Calm     35.8% 0.00 in 494 W/m2
15:19 56.7 °F 30 °F 30.17 in Calm     36% 0.00 in 482 W/m2
15:24 56.8 °F 30.1 °F 30.17 in Calm     36% 0.00 in 469 W/m2
15:29 57.1 °F 30 °F 30.17 in Calm     35.4% 0.00 in 459 W/m2
15:34 57.3 °F 30 °F 30.17 in Calm     35.1% 0.00 in 446 W/m2
15:39 57.4 °F 29.9 °F 30.17 in Calm     35% 0.00 in 434 W/m2
15:44 57.8 °F 29.9 °F 30.17 in Calm     34.4% 0.00 in 420 W/m2
15:49 57.8 °F 29.6 °F 30.17 in Calm     34.1% 0.00 in 406 W/m2
15:54 57.6 °F 29.4 °F 30.18 in Calm     34% 0.00 in 394 W/m2
15:59 57.4 °F 29.2 °F 30.17 in Calm     34% 0.00 in 380 W/m2
16:04 57.3 °F 29.1 °F 30.17 in Calm     34% 0.00 in 366 W/m2
16:09 57.2 °F 29.2 °F 30.17 in Calm     34.2% 0.00 in 352 W/m2
16:14 57.2 °F 29.2 °F 30.18 in Calm     34.2% 0.00 in 336 W/m2
16:19 57.4 °F 29.2 °F 30.18 in Calm     34% 0.00 in 323 W/m2
16:24 57.6 °F 29.2 °F 30.17 in Calm     33.7% 0.00 in 308 W/m2
16:29 58.2 °F 29.3 °F 30.17 in Calm     33.2% 0.00 in 294 W/m2
16:34 58.5 °F 28.9 °F 30.17 in Calm     32.3% 0.00 in 278 W/m2
16:39 58.3 °F 28.9 °F 30.17 in Calm     32.6% 0.00 in 264 W/m2
16:44 58.2 °F 29.1 °F 30.17 in Calm     32.9% 0.00 in 248 W/m2
16:49 58.3 °F 28.7 °F 30.17 in Calm     32.2% 0.00 in 234 W/m2
16:54 58.7 °F 28.9 °F 30.17 in Calm     32% 0.00 in 216 W/m2
16:59 59.4 °F 29.8 °F 30.17 in Calm     32.4% 0.00 in 200 W/m2
17:04 59.8 °F 29.1 °F 30.17 in Calm     31% 0.00 in 186 W/m2
17:09 59.8 °F 29.2 °F 30.17 in Calm     31.2% 0.00 in 169 W/m2
17:14 59.5 °F 28.8 °F 30.17 in Calm     31% 0.00 in 151 W/m2
17:19 59.2 °F 28.9 °F 30.17 in Calm     31.5% 0.00 in 130 W/m2
17:24 59.3 °F 29 °F 30.17 in Calm     31.5% 0.00 in 113 W/m2
17:29 59.4 °F 28.7 °F 30.17 in Calm     31% 0.00 in 95 W/m2
17:34 59.1 °F 28.8 °F 30.17 in Calm     31.5% 0.00 in 81 W/m2
17:39 59.1 °F 28.8 °F 30.17 in Calm     31.5% 0.00 in 67 W/m2
17:44 58.8 °F 28.2 °F 30.17 in Calm     31% 0.00 in 51 W/m2
17:49 58.7 °F 28.4 °F 30.17 in Calm     31.4% 0.00 in 40 W/m2
17:54 58.8 °F 28.9 °F 30.18 in Calm     31.8% 0.00 in 30 W/m2
17:59 58.9 °F 29.1 °F 30.18 in Calm     32% 0.00 in 23 W/m2
18:04 58.8 °F 29 °F 30.18 in Calm     32% 0.00 in 18 W/m2
18:09 58.6 °F 28.8 °F 30.18 in Calm     32% 0.00 in 14 W/m2
18:14 58.2 °F 28.5 °F 30.19 in Calm     32% 0.00 in 11 W/m2
18:19 57.5 °F 27.9 °F 30.19 in Calm     32% 0.00 in 7 W/m2
18:24 57 °F 27.9 °F 30.19 in Calm     32.7% 0.00 in 0 W/m2
18:29 56.6 °F 27.8 °F 30.19 in Calm     33% 0.00 in 0 W/m2
18:34 56.2 °F 28.5 °F 30.19 in Calm     34.4% 0.00 in 0 W/m2
18:39 56 °F 29.1 °F 30.19 in Calm     35.6% 0.00 in 0 W/m2
18:44 55.6 °F 29.3 °F 30.19 in Calm     36.4% 0.00 in 0 W/m2
18:49 54.9 °F 29.2 °F 30.20 in Calm     37% 0.00 in 0 W/m2
18:54 53.9 °F 28.9 °F 30.20 in Calm     38% 0.00 in 0 W/m2
18:59 53 °F 28.7 °F 30.20 in Calm     39% 0.00 in 0 W/m2
19:04 52.1 °F 28.5 °F 30.21 in Calm     39.9% 0.00 in 0 W/m2
19:09 51.1 °F 28.4 °F 30.21 in Calm     41.3% 0.00 in 0 W/m2
19:14 50.1 °F 28.1 °F 30.21 in Calm     42.5% 0.00 in 0 W/m2
19:19 48.7 °F 27.7 °F 30.21 in Calm     44.1% 0.00 in 0 W/m2
19:24 47.4 °F 27.7 °F 30.21 in Calm     46.2% 0.00 in 0 W/m2
19:29 46.8 °F 28 °F 30.21 in Calm     47.8% 0.00 in 0 W/m2
19:34 46.4 °F 28.1 °F 30.21 in Calm     48.7% 0.00 in 0 W/m2
19:39 46 °F 28.2 °F 30.21 in Calm     49.7% 0.00 in 0 W/m2
19:44 45.6 °F 28.5 °F 30.22 in Calm     51% 0.00 in 0 W/m2
19:49 45.2 °F 28.7 °F 30.22 in Calm     52% 0.00 in 0 W/m2
19:54 44.9 °F 28.8 °F 30.22 in Calm     53% 0.00 in 0 W/m2
19:59 44.6 °F 28.5 °F 30.22 in Calm     53% 0.00 in 0 W/m2
20:04 44.3 °F 28.6 °F 30.22 in Calm     53.8% 0.00 in 0 W/m2
20:09 44 °F 28.8 °F 30.22 in Calm     54.8% 0.00 in 0 W/m2
20:14 43.7 °F 28.6 °F 30.22 in Calm     55% 0.00 in 0 W/m2
20:19 43.5 °F 28.4 °F 30.22 in Calm     55% 0.00 in 0 W/m2
20:24 43.3 °F 28.2 °F 30.22 in Calm     55% 0.00 in 0 W/m2
20:29 43.1 °F 28 °F 30.23 in Calm     55% 0.00 in 0 W/m2
20:34 42.9 °F 27.8 °F 30.23 in Calm     55% 0.00 in 0 W/m2
20:39 42.8 °F 27.8 °F 30.23 in Calm     55.3% 0.00 in 0 W/m2
20:44 42.6 °F 27.7 °F 30.23 in Calm     55.4% 0.00 in 0 W/m2
20:49 42.4 °F 27.7 °F 30.23 in Calm     55.8% 0.00 in 0 W/m2
20:54 42.2 °F 27.6 °F 30.23 in Calm     56% 0.00 in 0 W/m2
20:59 42.1 °F 27.7 °F 30.23 in Calm     56.4% 0.00 in 0 W/m2
21:04 42 °F 28.1 °F 30.23 in Calm     57.5% 0.00 in 0 W/m2
21:09 41.8 °F 28.1 °F 30.24 in Calm     58% 0.00 in 0 W/m2
21:14 41.7 °F 27.7 °F 30.24 in Calm     57.4% 0.00 in 0 W/m2
21:19 41.7 °F 27.6 °F 30.24 in Calm     57% 0.00 in 0 W/m2
21:24 41.7 °F 27.8 °F 30.24 in Calm     57.6% 0.00 in 0 W/m2
21:29 41.6 °F 27.5 °F 30.24 in Calm     57% 0.00 in 0 W/m2
21:34 41.5 °F 27.7 °F 30.24 in Calm     57.7% 0.00 in 0 W/m2
21:39 41.3 °F 28 °F 30.24 in Calm     59% 0.00 in 0 W/m2
21:44 41 °F 27.8 °F 30.24 in Calm     59% 0.00 in 0 W/m2
21:49 40.8 °F 27.6 °F 30.24 in Calm     59% 0.00 in 0 W/m2
21:54 40.5 °F 27.3 °F 30.24 in Calm     59% 0.00 in 0 W/m2
21:59 40.4 °F 26.9 °F 30.24 in Calm     58.2% 0.00 in 0 W/m2
22:04 40.4 °F 26.8 °F 30.24 in Calm     58% 0.00 in 0 W/m2
22:09 40.4 °F 26.8 °F 30.24 in Calm     58% 0.00 in 0 W/m2
22:14 40.4 °F 27 °F 30.24 in Calm     58.7% 0.00 in 0 W/m2
22:19 40.2 °F 27 °F 30.24 in Calm     59% 0.00 in 0 W/m2
22:24 40.1 °F 26.9 °F 30.24 in Calm     59% 0.00 in 0 W/m2
22:29 40 °F 27.1 °F 30.24 in Calm     59.8% 0.00 in 0 W/m2
22:34 39.9 °F 27.1 °F 30.24 in Calm     60% 0.00 in 0 W/m2
22:39 39.8 °F 27.1 °F 30.24 in Calm     60.3% 0.00 in 0 W/m2
22:44 39.6 °F 27.2 °F 30.24 in Calm     61% 0.00 in 0 W/m2
22:49 39.4 °F 27.1 °F 30.24 in Calm     61% 0.00 in 0 W/m2
22:54 39.2 °F 27.3 °F 30.24 in Calm     62% 0.00 in 0 W/m2
22:59 39 °F 27.3 °F 30.24 in Calm     62.7% 0.00 in 0 W/m2
23:04 38.7 °F 27.2 °F 30.24 in Calm     63% 0.00 in 0 W/m2
23:09 38.5 °F 27 °F 30.23 in Calm     63% 0.00 in 0 W/m2
23:14 38.3 °F 27.1 °F 30.23 in Calm     63.6% 0.00 in 0 W/m2
23:19 38.2 °F 27.1 °F 30.23 in Calm     64% 0.00 in 0 W/m2
Rockcreek-Hillcrest Superior, Colorado, USA
Compliments of Weather Underground - 2 mb